Latest Coastal Weather Observations for Low Isles

IDQ60701

Issued at 11:55 am EST Tuesday 2 September 2014 (issued every 10 minutes, with the page automatically refreshed every 10 minutes)

About coastal observations | Map of coastal stations | Coastal observations for QLD | Marine services | Other Formats
Station Details ID: 031037 Name: LOW ISLES LIGHTHOUSE Lat: -16.38 Lon: 145.56 Height: 2.9 m
Data from the previous 72 hours. | See also: Recent months at Low Isles
Date/Time
EST
Temp

°C
Wind Pressure Rain
since 9am
mm
Weather Cloud Vis
km
Sea
Height
m
Swell
Dir
 
Speed
knots
Gust
knots
hPa Trend Height
m
Period
s
Dir
02/11:30am 24.5 SSE 7 9 1017.6 - 0.0 - - - - - - -
02/11:00am 24.0 S 8 10 1017.9 - 0.0 - - - - - - -
02/10:30am 23.8 S 8 9 1018.3 - 0.0 - - - - - - -
02/10:00am 23.3 SSE 9 10 1018.5 - 0.0 - - - - - - -
02/09:30am 22.8 S 8 9 1018.7 - 0.0 - - - - - - -
02/09:00am 22.2 S 8 10 1018.3 - 0.0 Smoke Mostly clear 25 - - - -
02/08:30am 21.4 S 8 9 1018.1 - 0.0 - - - - - - -
02/08:00am 20.9 SSW 9 10 1017.8 - 0.0 - - - - - - -
02/07:30am 20.6 SSW 10 11 1017.6 - 0.0 - - - - - - -
02/07:00am 20.5 SSW 11 12 1017.2 - 0.0 - - - - - - -
02/06:30am 20.5 SSW 11 13 1016.9 - 0.0 - - - - - - -
02/06:00am 20.7 SSW 9 9 1016.8 - 0.0 - - - - - - -
02/05:30am 20.7 SSW 10 11 1016.8 - 0.0 - - - - - - -
02/05:00am 20.7 SSW 10 11 1016.6 - 0.0 - - - - - - -
02/04:30am 20.9 SSW 10 11 1016.6 - 0.0 - - - - - - -
02/04:00am 21.1 SSW 9 10 1016.5 - 0.0 - - - - - - -
02/03:30am 21.2 SSW 12 13 1016.5 - 0.0 - - - - - - -
02/03:00am 21.3 SSW 11 13 1016.3 - 0.0 - - - - - - -
02/02:30am 21.3 SSW 12 13 1016.8 - 0.0 - - - - - - -
02/02:00am 21.4 SSW 10 11 1017.2 - 0.0 - - - - - - -
02/01:30am 21.4 SSW 9 11 1017.5 - 0.0 - - - - - - -
02/01:00am 21.6 S 9 11 1017.5 - 0.0 - - - - - - -
02/12:30am 21.8 S 10 11 1017.5 - 0.0 - - - - - - -
02/12:00am 21.8 SE 8 10 1017.8 - 0.0 - - - - - - -
 
Date/Time
EST
Temp

°C
Wind Pressure Rain
since 9am
mm
Weather Cloud Vis
km
Sea
Height
m
Swell
Dir
 
Speed
knots
Gust
knots
hPa Trend Height
m
Period
s
Dir
01/11:30pm 22.0 SE 10 13 1017.9 - 0.0 - - - - - - -
01/11:00pm 22.1 ESE 11 13 1018.1 - 0.0 - - - - - - -
01/10:30pm 22.4 ESE 11 14 1018.0 - 0.0 - - - - - - -
01/10:00pm 22.3 ESE 13 15 1018.1 - 0.0 - - - - - - -
01/09:30pm 22.5 ESE 14 17 1018.1 - 0.0 - - - - - - -
01/09:00pm 22.6 SE 15 18 1017.8 - 0.0 - - - - - - -
01/08:30pm 22.8 SE 17 19 1017.8 - 0.0 - - - - - - -
01/08:00pm 22.7 SE 15 19 1017.3 - 0.0 - - - - - - -
01/07:30pm 22.9 ESE 16 20 1016.9 - 0.0 - - - - - - -
01/07:00pm 22.8 ESE 15 19 1016.5 - 0.0 - - - - - - -
01/06:30pm 22.8 ESE 17 21 1016.3 - 0.0 - - - - - - -
01/06:00pm 23.0 ESE 18 22 1015.8 - 0.0 - - - - - - -
01/05:30pm 23.5 ESE 18 22 1015.5 - 0.0 - - - - - - -
01/05:00pm 23.6 SE 18 21 1015.2 - 0.0 - - - - - - -
01/04:30pm 23.8 SE 19 23 1015.0 - 0.0 - - - - - - -
01/04:00pm 24.2 SE 18 22 1014.7 - 0.0 - - - - - - -
01/03:30pm 24.8 SE 17 21 1014.6 - 0.0 - - - - - - -
01/03:00pm 25.3 SE 16 21 1014.8 - 0.0 Haze Mostly clear 15 - - - -
01/02:30pm 25.9 ESE 17 20 1015.2 - 0.0 - - - - - - -
01/02:00pm 25.7 SE 17 21 1015.4 - 0.0 - - - - - - -
01/01:30pm 25.7 SE 16 19 1015.8 - 0.0 - - - - - - -
01/01:00pm 25.6 SE 16 19 1016.5 - 0.0 - - - - - - -
01/12:30pm 25.5 SE 15 18 1016.8 - 0.0 - - - - - - -
01/12:00pm 25.3 SE 16 17 1017.1 - 0.0 - - - - - - -
01/11:30am 24.3 SSE 15 17 1017.9 - 0.0 - - - - - - -
01/11:00am 24.0 SSE 14 16 1018.2 - 0.0 - - - - - - -
01/10:30am 23.8 SSE 14 16 1018.4 - 0.0 - - - - - - -
01/10:00am 23.3 SSE 15 16 1018.6 - 0.0 - - - - - - -
01/09:30am 23.0 S 11 13 1018.3 - 0.0 - - - - - - -
01/09:00am 22.2 SSW 10 13 1018.1 - 0.0 Haze Mostly clear 25 - - - -
01/08:30am 21.7 SSW 9 11 1017.8 - 0.0 - - - - - - -
01/08:00am 21.2 SSW 9 10 1017.3 - 0.0 - - - - - - -
01/07:30am 21.0 SSW 9 11 1017.1 - 0.0 - - - - - - -
01/07:00am 20.9 SSW 9 12 1016.6 - 0.0 - - - - - - -
01/06:30am 21.0 SSW 10 13 1016.4 - 0.0 - - - - - - -
01/06:00am 21.2 S 10 13 1016.1 - 0.0 - - - - - - -
01/05:30am 21.2 SSW 11 13 1015.9 - 0.0 - - - - - - -
01/05:00am 21.5 S 13 14 1015.7 - 0.0 - - - - - - -
01/04:30am 21.6 S 13 15 1015.6 - 0.0 - - - - - - -
01/04:00am 21.6 S 13 15 1015.7 - 0.0 - - - - - - -
01/03:30am 21.6 S 15 16 1015.7 - 0.0 - - - - - - -
01/03:00am 21.3 S 10 12 1015.5 - 0.0 - - - - - - -
01/02:30am 21.4 S 12 17 1016.0 - 0.0 - - - - - - -
01/02:00am 21.7 S 14 16 1016.2 - 0.0 - - - - - - -
01/01:30am 21.6 S 14 15 1016.4 - 0.0 - - - - - - -
01/01:00am 21.7 S 14 16 1016.6 - 0.0 - - - - - - -
01/12:30am 21.6 S 13 15 1016.5 - 0.0 - - - - - - -
01/12:00am 21.6 S 12 14 1016.8 - 0.0 - - - - - - -
 
Date/Time
EST
Temp

°C
Wind Pressure Rain
since 9am
mm
Weather Cloud Vis
km
Sea
Height
m
Swell
Dir
 
Speed
knots
Gust
knots
hPa Trend Height
m
Period
s
Dir
31/11:30pm 21.8 S 13 14 1017.1 - 0.0 - - - - - - -
31/11:00pm 21.8 S 12 14 1017.2 - 0.0 - - - - - - -
31/10:30pm 22.1 S 12 14 1017.2 - 0.0 - - - - - - -
31/10:00pm 22.4 SE 16 19 1017.0 - 0.0 - - - - - - -
31/09:30pm 22.4 SE 17 20 1017.0 - 0.0 - - - - - - -
31/09:00pm 22.3 SE 17 21 1016.7 - 0.0 - - - - - - -
31/08:30pm 22.3 SE 18 21 1016.6 - 0.0 - - - - - - -
31/08:00pm 22.3 SE 18 22 1016.3 - 0.0 - - - - - - -
31/07:30pm 22.3 SE 18 22 1015.9 - 0.0 - - - - - - -
31/07:00pm 22.4 SE 18 22 1015.6 - 0.0 - - - - - - -
31/06:30pm 22.4 SE 18 22 1015.0 - 0.0 - - - - - - -
31/06:00pm 22.6 SE 18 22 1014.6 - 0.0 - - - - - - -
31/05:30pm 23.1 SE 18 23 1014.3 - 0.0 - - - - - - -
31/05:00pm 23.4 ESE 18 23 1014.0 - 0.0 - - - - - - -
31/04:30pm 23.8 ESE 18 22 1013.9 - 0.0 - - - - - - -
31/04:00pm 24.3 SE 19 23 1013.8 - 0.0 - - - - - - -
31/03:30pm 24.4 SE 19 24 1013.7 - 0.0 - - - - - - -
31/03:00pm 25.2 ESE 19 23 1013.8 - 0.0 Haze Mostly clear 15 - - - -
31/02:30pm 25.0 SE 17 22 1014.1 - 0.0 - - - - - - -
31/02:00pm 25.4 ESE 17 22 1014.3 - 0.0 - - - - - - -
31/01:30pm 25.3 ESE 19 23 1014.6 - 0.0 - - - - - - -
31/01:00pm 25.1 SE 18 22 1015.1 - 0.0 - - - - - - -
31/12:30pm 25.6 SE 17 21 1015.5 - 0.0 - - - - - - -
31/12:00pm 24.9 SE 17 19 1015.8 - 0.0 - - - - - - -
31/11:30am 24.8 SE 16 18 1016.5 - 0.0 - - - - - - -
31/11:00am 24.5 SE 16 18 1017.0 - 0.0 - - - - - - -
31/10:30am 23.5 SSE 15 18 1017.4 - 0.0 - - - - - - -
31/10:00am 23.1 SSE 14 16 1017.5 - 0.0 - - - - - - -
31/09:30am 22.9 SSE 13 15 1017.6 - 0.0 - - - - - - -
31/09:00am 22.2 S 13 15 1017.5 - 0.0 Haze Mostly clear 20 - - - -
31/08:30am 22.0 S 11 14 1017.3 - 0.0 - - - - - - -
31/08:00am 21.3 SSW 9 10 1017.0 - 0.0 - - - - - - -
31/07:30am 20.9 SSW 9 10 1016.8 - 0.0 - - - - - - -
31/07:00am 20.9 SSW 9 10 1016.5 - 0.0 - - - - - - -
31/06:30am 20.6 SSW 9 11 1016.2 - 0.0 - - - - - - -
31/06:00am 20.6 SSW 9 11 1015.8 - 0.0 - - - - - - -
31/05:30am 21.0 SSW 10 12 1015.7 - 0.0 - - - - - - -
31/05:00am 21.2 S 14 17 1015.3 - 0.0 - - - - - - -
31/04:30am 21.5 S 16 18 1015.2 - 0.0 - - - - - - -
31/04:00am 21.6 SSE 16 18 1015.1 - 0.0 - - - - - - -
31/03:30am 21.7 SSE 15 17 1015.1 - 0.0 - - - - - - -
31/03:00am 21.7 SSE 15 17 1014.9 - 0.0 - - - - - - -
31/02:30am 21.8 SSE 13 15 1015.3 - 0.0 - - - - - - -
31/02:00am 21.8 SSE 14 15 1015.5 - 0.0 - - - - - - -
31/01:30am 22.0 SSE 14 17 1016.0 - 0.0 - - - - - - -
31/01:00am 22.0 S 14 15 1016.5 - 0.0 - - - - - - -
31/12:30am 22.2 S 13 15 1016.7 - 0.0 - - - - - - -
31/12:00am 22.7 SE 15 18 1016.9 - 0.0 - - - - - - -
 
Date/Time
EST
Temp

°C
Wind Pressure Rain
since 9am
mm
Weather Cloud Vis
km
Sea
Height
m
Swell
Dir
 
Speed
knots
Gust
knots
hPa Trend Height
m
Period
s
Dir
30/11:30pm 22.8 SE 16 19 1017.1 - 0.0 - - - - - - -
30/11:00pm 22.7 ESE 15 19 1017.3 - 0.0 - - - - - - -
30/10:30pm 22.7 ESE 17 22 1017.2 - 0.0 - - - - - - -
30/10:00pm 22.8 ESE 17 21 1017.3 - 0.0 - - - - - - -
30/09:30pm 22.6 SE 18 21 1017.3 - 0.0 - - - - - - -
30/09:00pm 22.4 SE 18 22 1017.2 - 0.0 - - - - - - -
30/08:30pm 22.4 SE 16 20 1017.3 - 0.0 - - - - - - -
30/08:00pm 22.2 SE 17 22 1017.1 - 0.0 - - - - - - -
30/07:30pm 22.2 SE 17 21 1017.0 - 0.0 - - - - - - -
30/07:00pm 22.4 SE 18 23 1016.6 - 0.0 - - - - - - -
30/06:30pm 22.4 SE 18 23 1016.2 - 0.0 - - - - - - -
30/06:00pm 22.5 ESE 18 23 1015.7 - 0.0 - - - - - - -
30/05:30pm 22.9 SE 17 23 1015.7 - 0.0 - - - - - - -
30/05:00pm 23.3 SE 17 22 1015.7 - 0.0 - - - - - - -
30/04:30pm 23.4 SE 18 21 1015.2 - 0.0 - - - - - - -
30/04:00pm 24.2 ESE 18 23 1015.3 - 0.0 - - - - - - -
30/03:30pm 24.2 SE 19 23 1015.0 - 0.0 - - - - - - -
30/03:00pm 24.3 SE 21 24 1015.4 - 0.0 Haze Mostly cloudy 15 - - - -
30/02:30pm 24.0 SE 19 23 1015.6 - 0.0 - - - - - - -
30/02:00pm 24.1 SE 19 23 1016.0 - 0.0 - - - - - - -
30/01:30pm 23.7 SE 19 22 1016.5 - 0.0 - - - - - - -
30/01:00pm 23.7 SE 19 21 1017.2 - 0.0 - - - - - - -
30/12:30pm 23.3 SSE 20 23 1017.3 - 0.0 - - - - - - -
30/12:00pm 23.5 SSE 19 21 1017.5 - 0.0 - - - - - - -

Other Formats:

Comma delimited format used in spreadsheet applications
http://www.bom.gov.au/fwo/IDQ60701/IDQ60701.94285.axf

JavaScript Object Notation format (JSON) in row-major order
http://www.bom.gov.au/fwo/IDQ60701/IDQ60701.94285.json